sensor_id;sensor_type;location;lat;lon;timestamp;pressure;altitude;pressure_sealevel;temperature;humidity
67373;BME280;54257;54.496;18.412;2023-04-01T00:02:14;98021.17;;;5.26;100.00
67373;BME280;54257;54.496;18.412;2023-04-01T00:05:10;98022.52;;;5.22;100.00
67373;BME280;54257;54.496;18.412;2023-04-01T00:07:43;98029.61;;;5.20;100.00
67373;BME280;54257;54.496;18.412;2023-04-01T00:10:39;98028.06;;;5.18;100.00
67373;BME280;54257;54.496;18.412;2023-04-01T00:13:21;98022.78;;;5.11;100.00
67373;BME280;54257;54.496;18.412;2023-04-01T00:16:19;98021.21;;;5.05;99.95
67373;BME280;54257;54.496;18.412;2023-04-01T00:18:59;98021.19;;;5.03;100.00
67373;BME280;54257;54.496;18.412;2023-04-01T00:22:01;98021.39;;;5.05;100.00
67373;BME280;54257;54.496;18.412;2023-04-01T00:25:35;98026.32;;;5.09;100.00
67373;BME280;54257;54.496;18.412;2023-04-01T00:28:20;98022.91;;;5.06;99.97
67373;BME280;54257;54.496;18.412;2023-04-01T00:31:03;98025.44;;;5.04;99.79
67373;BME280;54257;54.496;18.412;2023-04-01T00:33:46;98024.39;;;4.99;99.50
67373;BME280;54257;54.496;18.412;2023-04-01T00:36:19;98023.15;;;4.91;99.23
67373;BME280;54257;54.496;18.412;2023-04-01T00:38:58;98024.45;;;4.85;99.21
67373;BME280;54257;54.496;18.412;2023-04-01T00:41:44;98023.58;;;4.82;99.15
67373;BME280;54257;54.496;18.412;2023-04-01T00:44:25;98022.86;;;4.78;99.03
67373;BME280;54257;54.496;18.412;2023-04-01T00:47:05;98022.85;;;4.75;99.28
67373;BME280;54257;54.496;18.412;2023-04-01T00:49:42;98020.66;;;4.75;99.63
67373;BME280;54257;54.496;18.412;2023-04-01T00:55:23;98027.70;;;4.70;99.44
67373;BME280;54257;54.496;18.412;2023-04-01T00:57:58;98027.49;;;4.64;98.89
67373;BME280;54257;54.496;18.412;2023-04-01T01:00:37;98029.83;;;4.59;98.84
67373;BME280;54257;54.496;18.412;2023-04-01T01:03:09;98031.16;;;4.58;98.91
67373;BME280;54257;54.496;18.412;2023-04-01T01:05:47;98035.05;;;4.58;99.00
67373;BME280;54257;54.496;18.412;2023-04-01T01:35:32;98044.46;;;4.18;99.24
67373;BME280;54257;54.496;18.412;2023-04-01T01:38:33;98045.15;;;4.18;99.30
67373;BME280;54257;54.496;18.412;2023-04-01T01:41:18;98048.19;;;4.18;99.31
67373;BME280;54257;54.496;18.412;2023-04-01T01:44:01;98051.40;;;4.21;99.58
67373;BME280;54257;54.496;18.412;2023-04-01T01:46:43;98052.83;;;4.26;99.76
67373;BME280;54257;54.496;18.412;2023-04-01T01:49:39;98052.14;;;4.25;99.55
67373;BME280;54257;54.496;18.412;2023-04-01T01:52:29;98048.04;;;4.22;99.24
67373;BME280;54257;54.496;18.412;2023-04-01T01:55:24;98053.44;;;4.21;99.28
67373;BME280;54257;54.496;18.412;2023-04-01T02:01:00;98054.69;;;4.12;99.28
67373;BME280;54257;54.496;18.412;2023-04-01T02:03:44;98056.38;;;4.11;99.70
67373;BME280;54257;54.496;18.412;2023-04-01T02:06:31;98057.74;;;4.13;99.92
67373;BME280;54257;54.496;18.412;2023-04-01T02:09:13;98055.25;;;4.16;100.00
67373;BME280;54257;54.496;18.412;2023-04-01T02:12:15;98051.89;;;4.17;100.00
67373;BME280;54257;54.496;18.412;2023-04-01T02:15:12;98053.92;;;4.18;100.00
67373;BME280;54257;54.496;18.412;2023-04-01T02:18:21;98056.98;;;4.19;100.00
67373;BME280;54257;54.496;18.412;2023-04-01T02:20:59;98056.48;;;4.21;100.00
67373;BME280;54257;54.496;18.412;2023-04-01T02:24:08;98053.28;;;4.22;100.00
67373;BME280;54257;54.496;18.412;2023-04-01T02:26:43;98051.95;;;4.22;100.00
67373;BME280;54257;54.496;18.412;2023-04-01T02:29:13;98057.55;;;4.24;100.00
67373;BME280;54257;54.496;18.412;2023-04-01T02:31:49;98060.91;;;4.24;100.00
67373;BME280;54257;54.496;18.412;2023-04-01T02:34:25;98060.54;;;4.21;100.00
67373;BME280;54257;54.496;18.412;2023-04-01T02:36:57;98062.55;;;4.19;100.00
67373;BME280;54257;54.496;18.412;2023-04-01T02:39:37;98062.71;;;4.18;100.00
67373;BME280;54257;54.496;18.412;2023-04-01T02:42:36;98065.23;;;4.17;100.00
67373;BME280;54257;54.496;18.412;2023-04-01T02:45:13;98060.83;;;4.16;100.00
67373;BME280;54257;54.496;18.412;2023-04-01T02:47:55;98065.26;;;4.20;100.00
67373;BME280;54257;54.496;18.412;2023-04-01T02:50:29;98061.88;;;4.19;100.00
67373;BME280;54257;54.496;18.412;2023-04-01T02:53:09;98063.89;;;4.18;100.00
67373;BME280;54257;54.496;18.412;2023-04-01T02:55:46;98063.00;;;4.13;100.00
67373;BME280;54257;54.496;18.412;2023-04-01T02:58:23;98063.30;;;4.09;100.00
67373;BME280;54257;54.496;18.412;2023-04-01T03:01:40;98070.41;;;4.12;100.00
67373;BME280;54257;54.496;18.412;2023-04-01T03:04:10;98070.06;;;4.10;100.00
67373;BME280;54257;54.496;18.412;2023-04-01T03:06:38;98076.80;;;4.09;100.00
67373;BME280;54257;54.496;18.412;2023-04-01T03:09:46;98077.66;;;4.11;100.00
67373;BME280;54257;54.496;18.412;2023-04-01T03:12:27;98081.05;;;4.11;100.00
67373;BME280;54257;54.496;18.412;2023-04-01T03:15:58;98084.69;;;4.06;100.00
67373;BME280;54257;54.496;18.412;2023-04-01T03:18:27;98084.50;;;4.04;100.00
67373;BME280;54257;54.496;18.412;2023-04-01T03:21:17;98087.20;;;4.04;100.00
67373;BME280;54257;54.496;18.412;2023-04-01T03:23:49;98087.89;;;4.04;100.00
67373;BME280;54257;54.496;18.412;2023-04-01T03:26:21;98091.95;;;4.05;100.00
67373;BME280;54257;54.496;18.412;2023-04-01T03:28:54;98093.98;;;4.06;100.00
67373;BME280;54257;54.496;18.412;2023-04-01T03:31:29;98096.89;;;4.08;100.00
67373;BME280;54257;54.496;18.412;2023-04-01T03:34:11;98099.09;;;4.08;100.00
67373;BME280;54257;54.496;18.412;2023-04-01T03:36:41;98099.25;;;4.08;100.00
67373;BME280;54257;54.496;18.412;2023-04-01T03:39:09;98097.71;;;4.07;100.00
67373;BME280;54257;54.496;18.412;2023-04-01T03:41:43;98094.63;;;4.04;100.00
67373;BME280;54257;54.496;18.412;2023-04-01T03:44:14;98097.99;;;4.02;100.00
67373;BME280;54257;54.496;18.412;2023-04-01T03:46:49;98097.66;;;4.02;100.00
67373;BME280;54257;54.496;18.412;2023-04-01T03:49:20;98097.67;;;4.03;100.00
67373;BME280;54257;54.496;18.412;2023-04-01T03:52:01;98094.30;;;4.04;100.00
67373;BME280;54257;54.496;18.412;2023-04-01T03:54:30;98093.27;;;4.03;100.00
67373;BME280;54257;54.496;18.412;2023-04-01T03:57:13;98095.31;;;4.04;100.00
67373;BME280;54257;54.496;18.412;2023-04-01T03:59:46;98095.96;;;4.01;100.00
67373;BME280;54257;54.496;18.412;2023-04-01T04:02:22;98095.79;;;4.01;100.00
67373;BME280;54257;54.496;18.412;2023-04-01T04:05:02;98098.30;;;3.99;100.00
67373;BME280;54257;54.496;18.412;2023-04-01T04:07:30;98097.30;;;4.00;100.00
67373;BME280;54257;54.496;18.412;2023-04-01T04:10:07;98099.35;;;4.02;100.00
67373;BME280;54257;54.496;18.412;2023-04-01T04:12:42;98102.89;;;4.01;100.00
67373;BME280;54257;54.496;18.412;2023-04-01T04:15:20;98104.41;;;4.02;100.00
67373;BME280;54257;54.496;18.412;2023-04-01T04:17:48;98108.80;;;4.01;100.00
67373;BME280;54257;54.496;18.412;2023-04-01T04:20:17;98111.00;;;4.01;100.00
67373;BME280;54257;54.496;18.412;2023-04-01T04:22:47;98112.19;;;4.03;100.00
67373;BME280;54257;54.496;18.412;2023-04-01T04:25:17;98109.85;;;4.05;100.00
67373;BME280;54257;54.496;18.412;2023-04-01T04:27:50;98110.17;;;4.04;100.00
67373;BME280;54257;54.496;18.412;2023-04-01T04:30:19;98111.16;;;4.02;100.00
67373;BME280;54257;54.496;18.412;2023-04-01T04:32:49;98111.52;;;4.02;100.00
67373;BME280;54257;54.496;18.412;2023-04-01T04:35:21;98114.90;;;4.03;100.00
67373;BME280;54257;54.496;18.412;2023-04-01T04:37:49;98116.06;;;4.01;100.00
67373;BME280;54257;54.496;18.412;2023-04-01T04:40:17;98115.85;;;3.97;100.00
67373;BME280;54257;54.496;18.412;2023-04-01T04:42:51;98118.67;;;3.94;100.00
67373;BME280;54257;54.496;18.412;2023-04-01T04:45:30;98121.86;;;3.91;100.00
67373;BME280;54257;54.496;18.412;2023-04-01T04:48:01;98121.52;;;3.91;100.00
67373;BME280;54257;54.496;18.412;2023-04-01T04:50:29;98119.16;;;3.91;100.00
67373;BME280;54257;54.496;18.412;2023-04-01T04:52:56;98119.30;;;3.90;100.00
67373;BME280;54257;54.496;18.412;2023-04-01T04:55:24;98120.44;;;3.87;100.00
67373;BME280;54257;54.496;18.412;2023-04-01T04:57:52;98120.92;;;3.84;100.00
67373;BME280;54257;54.496;18.412;2023-04-01T05:00:22;98127.52;;;3.86;100.00
67373;BME280;54257;54.496;18.412;2023-04-01T05:02:50;98126.85;;;3.87;100.00
67373;BME280;54257;54.496;18.412;2023-04-01T05:05:20;98122.27;;;3.85;100.00
67373;BME280;54257;54.496;18.412;2023-04-01T05:07:47;98122.43;;;3.84;100.00
67373;BME280;54257;54.496;18.412;2023-04-01T05:10:18;98123.59;;;3.83;100.00
67373;BME280;54257;54.496;18.412;2023-04-01T05:12:46;98130.30;;;3.79;100.00
67373;BME280;54257;54.496;18.412;2023-04-01T05:15:24;98134.35;;;3.79;100.00
67373;BME280;54257;54.496;18.412;2023-04-01T05:18:08;98132.64;;;3.77;100.00
67373;BME280;54257;54.496;18.412;2023-04-01T05:20:55;98136.17;;;3.76;100.00
67373;BME280;54257;54.496;18.412;2023-04-01T05:23:27;98136.11;;;3.72;100.00
67373;BME280;54257;54.496;18.412;2023-04-01T05:26:02;98140.15;;;3.72;100.00
67373;BME280;54257;54.496;18.412;2023-04-01T05:28:37;98141.98;;;3.69;100.00
67373;BME280;54257;54.496;18.412;2023-04-01T05:31:35;98142.42;;;3.65;100.00
67373;BME280;54257;54.496;18.412;2023-04-01T05:34:07;98145.09;;;3.63;100.00
67373;BME280;54257;54.496;18.412;2023-04-01T05:36:39;98147.27;;;3.61;100.00
67373;BME280;54257;54.496;18.412;2023-04-01T05:39:40;98144.66;;;3.56;100.00
67373;BME280;54257;54.496;18.412;2023-04-01T05:42:13;98145.14;;;3.55;100.00
67373;BME280;54257;54.496;18.412;2023-04-01T05:44:45;98148.19;;;3.55;100.00
67373;BME280;54257;54.496;18.412;2023-04-01T05:47:18;98151.03;;;3.53;100.00
67373;BME280;54257;54.496;18.412;2023-04-01T05:49:54;98155.58;;;3.52;100.00
67373;BME280;54257;54.496;18.412;2023-04-01T05:52:28;98164.18;;;3.52;100.00
67373;BME280;54257;54.496;18.412;2023-04-01T05:55:10;98166.40;;;3.54;100.00
67373;BME280;54257;54.496;18.412;2023-04-01T05:57:56;98164.73;;;3.55;100.00
67373;BME280;54257;54.496;18.412;2023-04-01T06:00:26;98169.28;;;3.55;100.00
67373;BME280;54257;54.496;18.412;2023-04-01T06:03:01;98174.86;;;3.55;100.00
67373;BME280;54257;54.496;18.412;2023-04-01T06:05:43;98177.73;;;3.56;100.00
67373;BME280;54257;54.496;18.412;2023-04-01T06:08:34;98183.11;;;3.55;100.00
67373;BME280;54257;54.496;18.412;2023-04-01T06:20:43;98199.84;;;3.56;100.00
67373;BME280;54257;54.496;18.412;2023-04-01T06:26:39;98210.88;;;3.59;100.00
67373;BME280;54257;54.496;18.412;2023-04-01T06:38:27;98213.10;;;3.60;100.00
67373;BME280;54257;54.496;18.412;2023-04-01T06:53:31;98229.33;;;3.52;100.00
67373;BME280;54257;54.496;18.412;2023-04-01T06:56:30;98231.00;;;3.51;100.00
67373;BME280;54257;54.496;18.412;2023-04-01T06:59:12;98237.77;;;3.52;100.00
67373;BME280;54257;54.496;18.412;2023-04-01T07:01:55;98237.11;;;3.54;100.00
67373;BME280;54257;54.496;18.412;2023-04-01T07:04:36;98239.64;;;3.53;100.00
67373;BME280;54257;54.496;18.412;2023-04-01T07:07:33;98244.02;;;3.52;100.00
67373;BME280;54257;54.496;18.412;2023-04-01T07:11:31;98253.60;;;3.51;100.00
67373;BME280;54257;54.496;18.412;2023-04-01T07:20:57;98271.01;;;3.51;100.00
67373;BME280;54257;54.496;18.412;2023-04-01T07:24:08;98272.87;;;3.52;100.00
67373;BME280;54257;54.496;18.412;2023-04-01T07:47:41;98294.64;;;3.33;100.00
67373;BME280;54257;54.496;18.412;2023-04-01T08:25:26;98337.60;;;3.21;100.00
67373;BME280;54257;54.496;18.412;2023-04-01T08:29:40;98340.60;;;3.19;100.00
67373;BME280;54257;54.496;18.412;2023-04-01T08:39:24;98355.19;;;3.15;100.00
67373;BME280;54257;54.496;18.412;2023-04-01T09:12:51;98383.05;;;3.24;100.00
67373;BME280;54257;54.496;18.412;2023-04-01T09:24:20;98394.15;;;3.31;100.00
67373;BME280;54257;54.496;18.412;2023-04-01T10:17:50;98452.64;;;3.45;100.00
67373;BME280;54257;54.496;18.412;2023-04-01T10:37:40;98481.08;;;3.33;100.00
67373;BME280;54257;54.496;18.412;2023-04-01T10:51:54;98490.39;;;3.34;100.00
67373;BME280;54257;54.496;18.412;2023-04-01T10:54:48;98496.05;;;3.31;100.00
67373;BME280;54257;54.496;18.412;2023-04-01T11:17:29;98520.66;;;3.45;100.00
67373;BME280;54257;54.496;18.412;2023-04-01T11:45:59;98548.66;;;3.36;100.00
67373;BME280;54257;54.496;18.412;2023-04-01T11:48:17;98551.20;;;3.37;100.00
67373;BME280;54257;54.496;18.412;2023-04-01T11:51:14;98553.20;;;3.35;100.00
67373;BME280;54257;54.496;18.412;2023-04-01T12:00:05;98557.05;;;3.27;100.00
67373;BME280;54257;54.496;18.412;2023-04-01T12:17:41;98569.34;;;3.33;100.00
67373;BME280;54257;54.496;18.412;2023-04-01T12:24:04;98583.29;;;3.32;100.00
67373;BME280;54257;54.496;18.412;2023-04-01T12:28:51;98585.33;;;3.32;100.00
67373;BME280;54257;54.496;18.412;2023-04-01T12:34:39;98595.04;;;3.28;100.00
67373;BME280;54257;54.496;18.412;2023-04-01T13:08:19;98639.69;;;2.99;100.00
67373;BME280;54257;54.496;18.412;2023-04-01T13:11:13;98643.72;;;2.98;100.00
67373;BME280;54257;54.496;18.412;2023-04-01T13:13:52;98647.11;;;2.98;100.00
67373;BME280;54257;54.496;18.412;2023-04-01T13:16:27;98651.66;;;2.98;100.00
67373;BME280;54257;54.496;18.412;2023-04-01T13:19:20;98653.99;;;2.97;100.00
67373;BME280;54257;54.496;18.412;2023-04-01T13:24:51;98662.86;;;2.87;100.00
67373;BME280;54257;54.496;18.412;2023-04-01T13:27:33;98668.52;;;2.85;100.00
67373;BME280;54257;54.496;18.412;2023-04-01T13:33:11;98674.58;;;2.85;100.00
67373;BME280;54257;54.496;18.412;2023-04-01T13:35:46;98673.86;;;2.83;100.00
67373;BME280;54257;54.496;18.412;2023-04-01T13:38:46;98678.57;;;2.83;100.00
67373;BME280;54257;54.496;18.412;2023-04-01T13:44:21;98681.64;;;2.84;100.00
67373;BME280;54257;54.496;18.412;2023-04-01T13:47:21;98682.81;;;2.84;100.00
67373;BME280;54257;54.496;18.412;2023-04-01T14:01:00;98697.17;;;2.72;100.00
67373;BME280;54257;54.496;18.412;2023-04-01T14:10:06;98705.58;;;2.65;100.00
67373;BME280;54257;54.496;18.412;2023-04-01T14:12:50;98710.80;;;2.65;100.00
67373;BME280;54257;54.496;18.412;2023-04-01T14:52:11;98756.59;;;2.39;100.00
67373;BME280;54257;54.496;18.412;2023-04-01T14:54:44;98757.95;;;2.40;100.00
67373;BME280;54257;54.496;18.412;2023-04-01T14:57:24;98760.83;;;2.41;100.00
67373;BME280;54257;54.496;18.412;2023-04-01T15:00:13;98761.16;;;2.40;100.00
67373;BME280;54257;54.496;18.412;2023-04-01T15:03:04;98767.02;;;2.39;100.00
67373;BME280;54257;54.496;18.412;2023-04-01T15:09:07;98773.34;;;2.31;100.00
67373;BME280;54257;54.496;18.412;2023-04-01T15:14:50;98778.53;;;2.29;100.00
67373;BME280;54257;54.496;18.412;2023-04-01T15:25:43;98798.44;;;2.30;100.00
67373;BME280;54257;54.496;18.412;2023-04-01T15:28:26;98802.38;;;2.27;100.00
67373;BME280;54257;54.496;18.412;2023-04-01T15:37:04;98816.08;;;2.23;100.00
67373;BME280;54257;54.496;18.412;2023-04-01T15:44:55;98828.14;;;2.16;100.00
67373;BME280;54257;54.496;18.412;2023-04-01T15:58:06;98847.11;;;2.14;100.00
67373;BME280;54257;54.496;18.412;2023-04-01T16:03:44;98856.19;;;2.13;100.00
67373;BME280;54257;54.496;18.412;2023-04-01T16:14:47;98877.89;;;2.12;100.00
67373;BME280;54257;54.496;18.412;2023-04-01T16:16:59;98881.55;;;2.12;100.00
67373;BME280;54257;54.496;18.412;2023-04-01T16:19:33;98893.11;;;2.10;100.00
67373;BME280;54257;54.496;18.412;2023-04-01T16:22:08;98895.29;;;2.09;100.00
67373;BME280;54257;54.496;18.412;2023-04-01T16:24:42;98899.14;;;2.08;100.00
67373;BME280;54257;54.496;18.412;2023-04-01T16:27:35;98900.96;;;2.08;100.00
67373;BME280;54257;54.496;18.412;2023-04-01T16:30:40;98906.63;;;2.05;100.00
67373;BME280;54257;54.496;18.412;2023-04-01T16:33:19;98907.02;;;2.03;100.00
67373;BME280;54257;54.496;18.412;2023-04-01T16:36:00;98908.33;;;2.01;100.00
67373;BME280;54257;54.496;18.412;2023-04-01T16:38:37;98915.52;;;2.00;100.00
67373;BME280;54257;54.496;18.412;2023-04-01T16:41:24;98912.27;;;1.98;100.00
67373;BME280;54257;54.496;18.412;2023-04-01T16:44:18;98919.01;;;1.98;100.00
67373;BME280;54257;54.496;18.412;2023-04-01T16:46:58;98925.09;;;1.99;100.00
67373;BME280;54257;54.496;18.412;2023-04-01T16:49:39;98926.77;;;1.99;100.00
67373;BME280;54257;54.496;18.412;2023-04-01T16:52:15;98931.02;;;2.00;100.00
67373;BME280;54257;54.496;18.412;2023-04-01T16:54:55;98935.41;;;2.00;100.00
67373;BME280;54257;54.496;18.412;2023-04-01T16:57:36;98940.82;;;2.01;100.00
67373;BME280;54257;54.496;18.412;2023-04-01T17:00:28;98944.34;;;2.01;100.00
67373;BME280;54257;54.496;18.412;2023-04-01T17:03:20;98949.87;;;2.00;100.00
67373;BME280;54257;54.496;18.412;2023-04-01T17:11:49;98961.88;;;1.96;100.00
67373;BME280;54257;54.496;18.412;2023-04-01T17:17:31;98967.02;;;1.99;100.00
67373;BME280;54257;54.496;18.412;2023-04-01T17:20:48;98976.44;;;1.99;100.00
67373;BME280;54257;54.496;18.412;2023-04-01T17:26:53;98979.71;;;2.01;100.00
67373;BME280;54257;54.496;18.412;2023-04-01T17:28:57;98985.61;;;2.01;100.00
67373;BME280;54257;54.496;18.412;2023-04-01T17:34:30;98992.04;;;2.02;100.00
67373;BME280;54257;54.496;18.412;2023-04-01T17:42:52;98999.42;;;2.01;100.00
67373;BME280;54257;54.496;18.412;2023-04-01T17:45:45;99005.50;;;2.02;100.00
67373;BME280;54257;54.496;18.412;2023-04-01T17:48:21;99011.89;;;2.02;100.00
67373;BME280;54257;54.496;18.412;2023-04-01T17:50:53;99014.57;;;2.01;100.00
67373;BME280;54257;54.496;18.412;2023-04-01T17:53:54;99014.16;;;1.99;100.00
67373;BME280;54257;54.496;18.412;2023-04-01T17:59:42;99015.42;;;1.96;100.00
67373;BME280;54257;54.496;18.412;2023-04-01T18:05:30;99022.35;;;1.92;100.00
67373;BME280;54257;54.496;18.412;2023-04-01T18:17:01;99029.34;;;1.90;100.00
67373;BME280;54257;54.496;18.412;2023-04-01T18:22:26;99037.52;;;1.88;100.00
67373;BME280;54257;54.496;18.412;2023-04-01T18:27:47;99045.45;;;1.88;100.00
67373;BME280;54257;54.496;18.412;2023-04-01T18:30:26;99051.55;;;1.89;100.00
67373;BME280;54257;54.496;18.412;2023-04-01T18:36:03;99051.52;;;1.88;100.00
67373;BME280;54257;54.496;18.412;2023-04-01T18:39:18;99056.54;;;1.88;100.00
67373;BME280;54257;54.496;18.412;2023-04-01T18:41:56;99055.98;;;1.87;100.00
67373;BME280;54257;54.496;18.412;2023-04-01T18:44:46;99063.23;;;1.87;100.00
67373;BME280;54257;54.496;18.412;2023-04-01T18:50:44;99074.36;;;1.87;100.00
67373;BME280;54257;54.496;18.412;2023-04-01T18:53:30;99070.29;;;1.87;100.00
67373;BME280;54257;54.496;18.412;2023-04-01T18:56:23;99072.73;;;1.84;100.00
67373;BME280;54257;54.496;18.412;2023-04-01T19:01:39;99078.41;;;1.87;100.00
67373;BME280;54257;54.496;18.412;2023-04-01T19:04:19;99084.52;;;1.89;100.00
67373;BME280;54257;54.496;18.412;2023-04-01T19:06:55;99082.02;;;1.90;100.00
67373;BME280;54257;54.496;18.412;2023-04-01T19:09:31;99085.56;;;1.90;100.00
67373;BME280;54257;54.496;18.412;2023-04-01T19:14:53;99088.93;;;1.89;100.00
67373;BME280;54257;54.496;18.412;2023-04-01T19:20:32;99100.14;;;1.87;100.00
67373;BME280;54257;54.496;18.412;2023-04-01T19:25:55;99107.54;;;1.87;100.00
67373;BME280;54257;54.496;18.412;2023-04-01T19:50:39;99137.58;;;1.85;100.00
67373;BME280;54257;54.496;18.412;2023-04-01T19:53:29;99146.15;;;1.85;100.00
67373;BME280;54257;54.496;18.412;2023-04-01T19:56:18;99143.13;;;1.85;100.00
67373;BME280;54257;54.496;18.412;2023-04-01T20:01:41;99158.79;;;1.85;100.00
67373;BME280;54257;54.496;18.412;2023-04-01T20:04:30;99162.64;;;1.85;100.00
67373;BME280;54257;54.496;18.412;2023-04-01T20:09:54;99177.62;;;1.84;100.00
67373;BME280;54257;54.496;18.412;2023-04-01T20:15:45;99193.04;;;1.82;100.00
67373;BME280;54257;54.496;18.412;2023-04-01T20:20:59;99198.88;;;1.81;100.00
67373;BME280;54257;54.496;18.412;2023-04-01T20:23:41;99198.12;;;1.79;100.00
67373;BME280;54257;54.496;18.412;2023-04-01T20:26:11;99206.73;;;1.79;100.00
67373;BME280;54257;54.496;18.412;2023-04-01T20:28:42;99210.01;;;1.78;100.00
67373;BME280;54257;54.496;18.412;2023-04-01T20:42:07;99233.13;;;1.75;100.00
67373;BME280;54257;54.496;18.412;2023-04-01T20:48:09;99246.19;;;1.73;100.00
67373;BME280;54257;54.496;18.412;2023-04-01T20:50:50;99249.87;;;1.72;100.00
67373;BME280;54257;54.496;18.412;2023-04-01T21:02:05;99265.95;;;1.66;100.00
67373;BME280;54257;54.496;18.412;2023-04-01T21:07:33;99269.31;;;1.57;100.00
67373;BME280;54257;54.496;18.412;2023-04-01T21:10:15;99263.17;;;1.52;100.00
67373;BME280;54257;54.496;18.412;2023-04-01T21:12:53;99264.58;;;1.45;100.00
67373;BME280;54257;54.496;18.412;2023-04-01T21:18:04;99269.34;;;1.30;100.00
67373;BME280;54257;54.496;18.412;2023-04-01T21:23:46;99277.29;;;1.23;100.00
67373;BME280;54257;54.496;18.412;2023-04-01T21:32:27;99272.00;;;1.13;100.00
67373;BME280;54257;54.496;18.412;2023-04-01T21:37:45;99277.31;;;1.16;100.00
67373;BME280;54257;54.496;18.412;2023-04-01T21:49:01;99288.04;;;1.15;100.00
67373;BME280;54257;54.496;18.412;2023-04-01T22:05:30;99297.39;;;1.17;100.00
67373;BME280;54257;54.496;18.412;2023-04-01T22:16:23;99301.25;;;1.17;100.00
67373;BME280;54257;54.496;18.412;2023-04-01T22:19:16;99303.99;;;1.18;100.00
67373;BME280;54257;54.496;18.412;2023-04-01T22:22:01;99304.17;;;1.19;100.00
67373;BME280;54257;54.496;18.412;2023-04-01T22:30:17;99315.98;;;1.19;100.00
67373;BME280;54257;54.496;18.412;2023-04-01T22:32:49;99314.52;;;1.17;100.00
67373;BME280;54257;54.496;18.412;2023-04-01T22:35:46;99316.66;;;1.16;100.00
67373;BME280;54257;54.496;18.412;2023-04-01T22:41:23;99321.72;;;1.12;100.00
67373;BME280;54257;54.496;18.412;2023-04-01T22:43:57;99326.48;;;1.09;100.00
67373;BME280;54257;54.496;18.412;2023-04-01T22:49:31;99331.64;;;1.00;100.00
67373;BME280;54257;54.496;18.412;2023-04-01T22:54:47;99332.84;;;0.94;100.00
67373;BME280;54257;54.496;18.412;2023-04-01T23:00:26;99337.97;;;0.88;100.00
67373;BME280;54257;54.496;18.412;2023-04-01T23:03:36;99339.02;;;0.89;100.00
67373;BME280;54257;54.496;18.412;2023-04-01T23:06:15;99338.83;;;0.89;100.00
67373;BME280;54257;54.496;18.412;2023-04-01T23:11:53;99351.15;;;0.93;100.00
67373;BME280;54257;54.496;18.412;2023-04-01T23:24:52;99365.46;;;0.71;100.00
67373;BME280;54257;54.496;18.412;2023-04-01T23:30:46;99365.67;;;0.62;100.00
67373;BME280;54257;54.496;18.412;2023-04-01T23:33:22;99364.17;;;0.58;100.00
67373;BME280;54257;54.496;18.412;2023-04-01T23:35:54;99363.98;;;0.57;100.00
67373;BME280;54257;54.496;18.412;2023-04-01T23:38:25;99368.23;;;0.58;100.00
67373;BME280;54257;54.496;18.412;2023-04-01T23:40:54;99369.63;;;0.60;100.00
67373;BME280;54257;54.496;18.412;2023-04-01T23:43:25;99370.08;;;0.62;100.00
67373;BME280;54257;54.496;18.412;2023-04-01T23:45:57;99372.23;;;0.65;100.00
67373;BME280;54257;54.496;18.412;2023-04-01T23:48:32;99367.16;;;0.68;100.00
67373;BME280;54257;54.496;18.412;2023-04-01T23:51:00;99374.79;;;0.70;100.00
67373;BME280;54257;54.496;18.412;2023-04-01T23:53:34;99376.71;;;0.72;100.00
67373;BME280;54257;54.496;18.412;2023-04-01T23:56:02;99386.30;;;0.72;100.00
67373;BME280;54257;54.496;18.412;2023-04-01T23:58:44;99394.31;;;0.70;100.00
